createdAt,value
2023-04-06T00:00:37.045Z,-1.10
2023-04-06T00:03:05.582Z,-1.30
2023-04-06T00:05:33.979Z,-1.30
2023-04-06T00:08:03.528Z,-1.30
2023-04-06T00:10:31.923Z,-1.40
2023-04-06T00:13:01.072Z,-1.40
2023-04-06T00:15:29.210Z,-1.40
2023-04-06T00:17:58.249Z,-1.40
2023-04-06T00:20:27.580Z,-1.50
2023-04-06T00:22:56.117Z,-1.50
2023-04-06T00:25:25.670Z,-1.50
2023-04-06T00:27:53.881Z,-1.50
2023-04-06T00:30:22.599Z,-1.50
2023-04-06T00:32:50.736Z,-1.50
2023-04-06T00:35:18.925Z,-1.60
2023-04-06T00:37:49.083Z,-1.60
2023-04-06T00:40:17.504Z,-1.60
2023-04-06T00:42:47.475Z,-1.60
2023-04-06T00:45:15.561Z,-1.60
2023-04-06T00:47:43.890Z,-1.60
2023-04-06T00:50:12.254Z,-1.60
2023-04-06T00:52:40.410Z,-1.60
2023-04-06T00:55:09.858Z,-1.60
2023-04-06T00:57:38.309Z,-1.60
2023-04-06T01:00:09.449Z,-1.70
2023-04-06T01:02:37.787Z,-1.70
2023-04-06T01:05:06.807Z,-1.80
2023-04-06T01:07:35.382Z,-1.80
2023-04-06T01:10:03.913Z,-1.80
2023-04-06T01:12:32.138Z,-1.80
2023-04-06T01:15:00.538Z,-1.80
2023-04-06T01:17:30.685Z,-1.90
2023-04-06T01:19:59.258Z,-1.90
2023-04-06T01:22:28.817Z,-1.90
2023-04-06T01:24:57.668Z,-2.00
2023-04-06T01:27:27.347Z,-2.00
2023-04-06T01:29:55.540Z,-2.00
2023-04-06T01:32:24.028Z,-2.10
2023-04-06T01:34:52.161Z,-2.10
2023-04-06T01:37:20.413Z,-2.00
2023-04-06T01:39:50.048Z,-2.00
2023-04-06T01:42:18.185Z,-2.00
2023-04-06T01:44:48.172Z,-2.00
2023-04-06T01:47:16.248Z,-2.00
2023-04-06T01:49:44.427Z,-2.00
2023-04-06T01:52:12.529Z,-2.00
2023-04-06T01:54:40.888Z,-2.00
2023-04-06T01:57:10.561Z,-2.10
2023-04-06T01:59:38.813Z,-2.10
2023-04-06T02:02:07.025Z,-2.10
2023-04-06T02:04:35.134Z,-2.20
2023-04-06T02:07:03.240Z,-2.20
2023-04-06T02:09:31.922Z,-2.20
2023-04-06T02:12:00.052Z,-2.20
2023-04-06T02:14:29.682Z,-2.20
2023-04-06T02:16:57.849Z,-2.20
2023-04-06T02:19:26.068Z,-2.20
2023-04-06T02:21:54.375Z,-2.20
2023-04-06T02:24:22.429Z,-2.30
2023-04-06T02:26:50.917Z,-2.30
2023-04-06T02:29:19.044Z,-2.30
2023-04-06T02:31:48.599Z,-2.30
2023-04-06T02:34:18.957Z,-2.40
2023-04-06T02:36:47.780Z,-2.40
2023-04-06T02:39:16.673Z,-2.40
2023-04-06T02:41:44.800Z,-2.50
2023-04-06T02:44:12.898Z,-2.50
2023-04-06T02:46:41.396Z,-2.50
2023-04-06T02:49:10.898Z,-2.40
2023-04-06T02:51:39.074Z,-2.40
2023-04-06T02:54:07.206Z,-2.40
2023-04-06T02:56:35.545Z,-2.40
2023-04-06T02:59:04.034Z,-2.50
2023-04-06T03:01:32.482Z,-2.50
2023-04-06T03:04:00.609Z,-2.60
2023-04-06T03:06:30.162Z,-2.50
2023-04-06T03:08:58.272Z,-2.50
2023-04-06T03:11:27.911Z,-2.50
2023-04-06T03:13:56.078Z,-2.50
2023-04-06T03:16:24.351Z,-2.50
2023-04-06T03:18:52.500Z,-2.50
2023-04-06T03:21:21.324Z,-2.60
2023-04-06T03:23:52.204Z,-2.50
2023-04-06T03:26:20.478Z,-2.50
2023-04-06T03:28:48.566Z,-2.50
2023-04-06T03:31:16.834Z,-2.60
2023-04-06T03:33:44.986Z,-2.60
2023-04-06T03:36:13.557Z,-2.60
2023-04-06T03:38:41.663Z,-2.60
2023-04-06T03:41:11.553Z,-2.70
2023-04-06T03:43:39.677Z,-2.70
2023-04-06T03:46:07.867Z,-2.70
2023-04-06T03:48:36.476Z,-2.70
2023-04-06T03:51:04.681Z,-2.70
2023-04-06T03:53:32.894Z,-2.70
2023-04-06T03:56:03.428Z,-2.70
2023-04-06T03:58:34.247Z,-2.80
2023-04-06T04:01:02.583Z,-2.80
2023-04-06T04:03:30.806Z,-2.80
2023-04-06T04:05:59.029Z,-2.80
2023-04-06T04:08:27.502Z,-2.80
2023-04-06T04:10:56.478Z,-2.80
2023-04-06T04:13:25.025Z,-2.90
2023-04-06T04:15:54.982Z,-2.90
2023-04-06T04:18:23.189Z,-2.90
2023-04-06T04:20:55.663Z,-2.90
2023-04-06T04:23:23.837Z,-3.00
2023-04-06T04:25:52.735Z,-3.00
2023-04-06T04:28:20.875Z,-3.00
2023-04-06T04:30:49.093Z,-2.90
2023-04-06T04:33:18.607Z,-2.90
2023-04-06T04:35:46.798Z,-2.90
2023-04-06T04:38:15.362Z,-2.90
2023-04-06T04:40:43.525Z,-2.90
2023-04-06T04:43:11.832Z,-2.80
2023-04-06T04:45:39.935Z,-2.80
2023-04-06T04:48:09.632Z,-2.80
2023-04-06T04:50:39.529Z,-2.90
2023-04-06T04:53:07.617Z,-2.80
2023-04-06T04:55:35.723Z,-2.80
2023-04-06T04:58:04.411Z,-2.80
2023-04-06T05:00:32.706Z,-2.80
2023-04-06T05:03:01.456Z,-2.80
2023-04-06T05:05:29.611Z,-2.80
2023-04-06T05:07:59.146Z,-2.80
2023-04-06T05:10:27.277Z,-2.80
2023-04-06T05:12:55.516Z,-2.70
2023-04-06T05:15:23.949Z,-2.70
2023-04-06T05:17:53.288Z,-2.70
2023-04-06T05:20:21.493Z,-2.60
2023-04-06T05:22:49.601Z,-2.60
2023-04-06T05:25:19.613Z,-2.50
2023-04-06T05:27:48.021Z,-2.50
2023-04-06T05:30:16.843Z,-2.40
2023-04-06T05:32:45.487Z,-2.40
2023-04-06T05:35:13.812Z,-2.30
2023-04-06T05:37:42.221Z,-2.30
2023-04-06T05:40:11.661Z,-2.20
2023-04-06T05:42:42.126Z,-2.10
2023-04-06T05:45:11.852Z,-2.00
2023-04-06T05:47:40.054Z,-1.90
2023-04-06T05:50:09.172Z,-1.80
2023-04-06T05:52:37.671Z,-1.70
2023-04-06T05:55:06.976Z,-1.70
2023-04-06T05:57:36.134Z,-1.60
2023-04-06T06:00:07.814Z,-1.50
2023-04-06T06:02:36.081Z,-1.40
2023-04-06T06:05:07.505Z,-1.30
2023-04-06T06:07:35.687Z,-1.00
2023-04-06T06:10:03.970Z,-0.80
2023-04-06T06:12:32.096Z,-0.50
2023-04-06T06:15:00.276Z,0.10
2023-04-06T06:17:30.154Z,1.00
2023-04-06T06:19:58.252Z,1.50
2023-04-06T06:22:26.396Z,2.40
2023-04-06T06:24:54.461Z,3.00
2023-04-06T13:10:54.123Z,14.50
2023-04-06T13:13:25.670Z,14.60
2023-04-06T13:15:53.985Z,14.80
2023-04-06T13:18:22.350Z,14.70
2023-04-06T13:20:50.515Z,14.10
2023-04-06T13:23:19.145Z,14.10
2023-04-06T13:25:48.703Z,14.20
2023-04-06T13:28:16.932Z,14.60
2023-04-06T13:30:45.386Z,14.50
2023-04-06T13:33:13.569Z,14.00
2023-04-06T13:35:41.935Z,14.00
2023-04-06T13:38:10.062Z,13.60
2023-04-06T13:40:41.022Z,13.50
2023-04-06T13:43:10.648Z,13.50
2023-04-06T13:45:39.292Z,12.70
2023-04-06T13:48:08.193Z,12.60
2023-04-06T13:50:36.452Z,12.10
2023-04-06T13:53:04.452Z,12.60
2023-04-06T13:55:32.426Z,12.90
2023-04-06T13:58:00.425Z,13.60
2023-04-06T14:00:30.385Z,13.60
2023-04-06T14:02:58.545Z,13.70
2023-04-06T14:05:28.708Z,14.00
2023-04-06T14:07:56.657Z,13.50
2023-04-06T14:10:27.637Z,13.90
2023-04-06T14:12:57.273Z,13.80
2023-04-06T14:15:25.475Z,13.60
2023-04-06T14:17:54.879Z,14.00
2023-04-06T14:20:23.005Z,14.00
2023-04-06T14:22:53.550Z,13.60
2023-04-06T14:25:21.812Z,13.70
2023-04-06T14:27:49.789Z,13.30
2023-04-06T14:30:18.091Z,12.50
2023-04-06T14:32:46.109Z,12.70
2023-04-06T14:35:15.498Z,12.60
2023-04-06T14:37:43.672Z,12.30
2023-04-06T14:40:12.309Z,12.60
2023-04-06T14:42:40.809Z,12.70
2023-04-06T14:45:09.622Z,12.90
2023-04-06T14:47:37.651Z,13.20
2023-04-06T14:50:06.908Z,13.10
2023-04-06T14:52:37.264Z,12.30
2023-04-06T14:55:05.913Z,12.00
2023-04-06T14:57:34.771Z,12.20
2023-04-06T15:00:04.344Z,12.20
2023-04-06T15:02:34.938Z,11.90
2023-04-06T15:05:03.881Z,11.70
2023-04-06T15:07:31.885Z,11.60
2023-04-06T15:10:01.241Z,11.50
2023-04-06T15:12:30.525Z,11.40
2023-04-06T15:14:59.395Z,11.80
2023-04-06T15:17:28.090Z,11.80
2023-04-06T15:19:56.289Z,11.80
2023-04-06T15:22:24.333Z,11.70
2023-04-06T15:24:52.547Z,11.80
2023-04-06T15:27:22.280Z,11.60
2023-04-06T15:29:50.425Z,11.50
2023-04-06T15:32:18.523Z,11.50
2023-04-06T15:34:46.572Z,11.40
2023-04-06T15:37:14.652Z,11.40
2023-04-06T15:39:44.068Z,11.50
2023-04-06T15:42:12.035Z,11.30
2023-04-06T15:44:41.593Z,11.30
2023-04-06T15:47:09.624Z,11.40
2023-04-06T15:49:37.679Z,11.30
2023-04-06T15:52:06.299Z,11.30
2023-04-06T15:54:36.483Z,11.30
2023-04-06T15:57:04.509Z,11.20
2023-04-06T15:59:32.447Z,11.10
2023-04-06T16:02:02.052Z,11.10
2023-04-06T16:04:30.883Z,11.10
2023-04-06T16:06:59.079Z,11.20
2023-04-06T16:09:27.744Z,11.10
2023-04-06T16:11:56.787Z,11.20
2023-04-06T16:14:24.937Z,11.10
2023-04-06T16:16:53.446Z,11.10
2023-04-06T16:19:22.816Z,11.10
2023-04-06T16:21:51.422Z,11.20
2023-04-06T16:24:19.444Z,11.10
2023-04-06T16:26:48.406Z,11.20
2023-04-06T16:29:17.435Z,11.30
2023-04-06T16:31:47.893Z,11.20
2023-04-06T16:34:16.125Z,11.00
2023-04-06T16:36:46.457Z,10.90
2023-04-06T16:39:14.641Z,10.70
2023-04-06T16:41:42.822Z,10.60
2023-04-06T16:44:11.351Z,10.70
2023-04-06T16:46:40.379Z,10.70
2023-04-06T16:49:08.444Z,10.50
2023-04-06T16:51:37.023Z,10.40
2023-04-06T16:54:06.901Z,10.40
2023-04-06T16:56:34.952Z,10.30
2023-04-06T16:59:03.030Z,10.20
2023-04-06T17:01:31.173Z,10.10
2023-04-06T17:03:59.469Z,9.90
2023-04-06T17:06:28.859Z,9.90
2023-04-06T17:08:57.071Z,9.80
2023-04-06T17:11:48.768Z,9.70
2023-04-06T17:14:14.941Z,9.60
2023-04-06T17:16:43.277Z,9.40
2023-04-06T17:19:11.397Z,9.30
2023-04-06T17:21:41.667Z,9.20
2023-04-06T17:24:09.883Z,9.10
2023-04-06T17:26:39.296Z,9.00
2023-04-06T17:29:07.693Z,8.90
2023-04-06T17:31:35.695Z,8.70
2023-04-06T17:34:03.854Z,8.60
2023-04-06T17:36:32.832Z,8.50
2023-04-06T17:39:00.949Z,8.40
2023-04-06T17:41:32.995Z,8.20
2023-04-06T17:44:02.385Z,8.10
2023-04-06T17:46:30.507Z,8.00
2023-04-06T17:48:58.611Z,7.90
2023-04-06T17:51:27.080Z,7.80
2023-04-06T17:53:55.898Z,7.70
2023-04-06T17:56:24.227Z,7.60
2023-04-06T17:58:56.035Z,7.50
2023-04-06T18:01:25.773Z,7.40
2023-04-06T18:03:54.053Z,7.30
2023-04-06T18:06:25.656Z,7.30
2023-04-06T18:08:54.474Z,7.20
2023-04-06T18:11:22.625Z,7.10
2023-04-06T18:13:52.327Z,7.00
2023-04-06T18:16:21.775Z,6.90
2023-04-06T18:18:51.537Z,6.70
2023-04-06T18:21:19.538Z,6.60
2023-04-06T18:23:48.076Z,6.50
2023-04-06T18:26:18.175Z,6.40
2023-04-06T18:28:46.540Z,6.40
2023-04-06T18:31:15.168Z,6.20
2023-04-06T18:33:43.842Z,6.10
2023-04-06T18:36:14.373Z,6.10
2023-04-06T18:38:44.333Z,6.00
2023-04-06T18:41:12.775Z,5.90
2023-04-06T18:43:41.825Z,5.80
2023-04-06T18:46:13.783Z,5.70
2023-04-06T18:48:41.921Z,5.60
2023-04-06T18:51:10.057Z,5.60
2023-04-06T18:53:40.016Z,5.50
2023-04-06T18:56:15.893Z,5.50
2023-04-06T18:58:44.195Z,5.40
2023-04-06T19:01:12.342Z,5.30
2023-04-06T19:03:40.429Z,5.20
2023-04-06T19:06:08.956Z,5.20
2023-04-06T19:08:37.426Z,5.10
2023-04-06T19:11:09.970Z,5.10
2023-04-06T19:13:39.137Z,5.10
2023-04-06T19:16:10.004Z,5.00
2023-04-06T19:18:38.454Z,5.00
2023-04-06T19:21:14.951Z,4.90
2023-04-06T19:23:43.113Z,4.90
2023-04-06T19:26:13.969Z,4.80
2023-04-06T19:28:43.387Z,4.80
2023-04-06T19:31:13.613Z,4.70
2023-04-06T19:33:41.939Z,4.60
2023-04-06T19:36:10.320Z,4.60
2023-04-06T19:38:39.019Z,4.50
2023-04-06T19:41:07.563Z,4.40
2023-04-06T19:43:36.913Z,4.30
2023-04-06T19:46:05.553Z,4.20
2023-04-06T19:48:34.242Z,4.20
2023-04-06T19:51:02.526Z,4.10
2023-04-06T19:53:31.159Z,4.00
2023-04-06T19:55:59.236Z,3.90
2023-04-06T19:58:27.289Z,3.80
2023-04-06T20:00:56.758Z,3.70
2023-04-06T20:03:25.110Z,3.70
2023-04-06T20:05:53.460Z,3.60
2023-04-06T20:08:21.474Z,3.60
2023-04-06T20:10:49.474Z,3.60
2023-04-06T20:13:17.486Z,3.50
2023-04-06T20:15:45.715Z,3.50
2023-04-06T20:18:19.237Z,3.50
2023-04-06T20:20:47.232Z,3.50
2023-04-06T20:23:15.334Z,3.40
2023-04-06T20:25:43.348Z,3.40
2023-04-06T20:28:11.429Z,3.40
2023-04-06T20:30:39.930Z,3.40
2023-04-06T20:33:08.056Z,3.40
2023-04-06T20:35:37.461Z,3.30
2023-04-06T20:38:05.553Z,3.30
2023-04-06T20:40:33.762Z,3.20
2023-04-06T20:43:03.372Z,3.20
2023-04-06T20:45:38.276Z,3.10
2023-04-06T20:48:06.463Z,3.10
2023-04-06T20:50:34.564Z,3.10
2023-04-06T20:53:04.111Z,3.10
2023-04-06T20:55:34.088Z,3.00
2023-04-06T20:58:02.089Z,3.00
2023-04-06T21:00:30.111Z,3.00
2023-04-06T21:02:58.314Z,3.00
2023-04-06T21:05:26.842Z,3.00
2023-04-06T21:07:55.390Z,2.90
2023-04-06T21:10:25.134Z,2.80
2023-04-06T21:12:53.085Z,2.80
2023-04-06T21:15:21.125Z,2.70
2023-04-06T21:17:49.833Z,2.70
2023-04-06T21:20:17.955Z,2.70
2023-04-06T21:22:45.945Z,2.60
2023-04-06T21:25:14.860Z,2.60
2023-04-06T21:27:44.279Z,2.50
2023-04-06T21:30:13.891Z,2.50
2023-04-06T21:32:42.007Z,2.50
2023-04-06T21:35:11.305Z,2.40
2023-04-06T21:37:39.374Z,2.40
2023-04-06T21:40:08.814Z,2.40
2023-04-06T21:42:37.344Z,2.30
2023-04-06T21:45:07.971Z,2.30
2023-04-06T21:47:36.189Z,2.20
2023-04-06T21:50:04.560Z,2.20
2023-04-06T21:52:32.753Z,2.10
2023-04-06T21:55:02.163Z,2.10
2023-04-06T21:57:30.109Z,2.10
2023-04-06T21:59:58.127Z,2.10
2023-04-06T22:02:29.062Z,2.00
2023-04-06T22:04:57.228Z,1.90
2023-04-06T22:07:25.894Z,1.90
2023-04-06T22:09:53.973Z,1.90
2023-04-06T22:12:21.976Z,1.80
2023-04-06T22:14:51.402Z,1.80
2023-04-06T22:17:19.462Z,1.80
2023-04-06T22:19:49.246Z,1.80
2023-04-06T22:22:17.271Z,1.70
2023-04-06T22:24:45.428Z,1.70
2023-04-06T22:27:13.610Z,1.60
2023-04-06T22:29:41.691Z,1.60
2023-04-06T22:32:13.152Z,1.50
2023-04-06T22:34:41.191Z,1.40
2023-04-06T22:37:10.589Z,1.40
2023-04-06T22:39:38.563Z,1.40
2023-04-06T22:42:06.815Z,1.40
2023-04-06T22:44:35.129Z,1.30
2023-04-06T22:47:03.152Z,1.30
2023-04-06T22:49:31.128Z,1.30
2023-04-06T22:51:59.105Z,1.20
2023-04-06T22:54:28.488Z,1.30
2023-04-06T22:56:57.239Z,1.20
2023-04-06T22:59:25.183Z,1.20
2023-04-06T23:01:53.190Z,1.10
2023-04-06T23:04:21.557Z,1.10
2023-04-06T23:06:49.932Z,1.00
2023-04-06T23:09:18.395Z,1.00
2023-04-06T23:11:47.742Z,0.90
2023-04-06T23:14:16.003Z,0.90
2023-04-06T23:16:44.255Z,0.80
2023-04-06T23:19:12.304Z,0.80
2023-04-06T23:21:41.122Z,0.80
2023-04-06T23:24:09.122Z,0.80
2023-04-06T23:26:37.044Z,0.80
2023-04-06T23:29:06.603Z,0.80
2023-04-06T23:31:34.574Z,0.90
2023-04-06T23:34:02.937Z,0.90
2023-04-06T23:36:31.697Z,0.90
2023-04-06T23:38:59.799Z,0.90
2023-04-06T23:41:28.140Z,0.90
2023-04-06T23:43:56.604Z,0.90
2023-04-06T23:46:26.466Z,0.90
2023-04-06T23:48:54.438Z,0.80
2023-04-06T23:51:22.393Z,0.70
2023-04-06T23:53:50.794Z,0.70
2023-04-06T23:56:18.765Z,0.70
2023-04-06T23:58:47.294Z,0.70
